Time;durP1;ratioP1;P1;durP2;ratioP2;P2;SDS_P1;SDS_P2;PMS_P1;PMS_P2;Temp;Humidity;BMP_temperature;BMP_pressure;BME280_temperature;BME280_humidity;BME280_pressure;Samples;Min_cycle;Max_cycle;Signal;HPM_P1;HPM_P2
2022/09/23 00:01:13;;;;;;;;;13.00;10.00;;;;;26.52;100.00;101473.72;5080530;27;51165;-49
2022/09/23 00:03:58;;;;;;;;;13.75;13.75;;;;;26.51;100.00;101483.72;5080196;27;51100;-48
2022/09/23 00:06:42;;;;;;;;;15.00;12.00;;;;;26.49;100.00;101480.22;5080260;27;51567;-49
2022/09/23 00:09:27;;;;;;;;;15.25;14.00;;;;;26.49;100.00;101471.16;5080170;27;51153;-47
2022/09/23 00:12:12;;;;;;;;;11.50;11.25;;;;;26.49;100.00;101468.41;5080067;27;50990;-48
2022/09/23 00:14:56;;;;;;;;;12.00;10.75;;;;;26.45;100.00;101463.16;5080303;27;51112;-49
2022/09/23 00:17:41;;;;;;;;;14.75;12.25;;;;;26.44;100.00;101460.50;5080271;27;51163;-47
2022/09/23 00:20:25;;;;;;;;;16.25;12.25;;;;;26.43;100.00;101458.75;5079738;27;51189;-50
2022/09/23 00:23:10;;;;;;;;;15.75;12.25;;;;;26.43;100.00;101461.47;5077904;27;51222;-46
2022/09/23 00:26:01;;;;;;;;;13.50;10.00;;;;;26.38;100.00;101441.78;5079832;27;51438;-47
2022/09/23 00:28:46;;;;;;;;;11.50;9.25;;;;;26.41;100.00;101447.94;5080018;27;51290;-49
2022/09/23 00:31:31;;;;;;;;;14.00;12.00;;;;;26.41;100.00;101442.47;5080246;27;51074;-47
2022/09/23 00:34:15;;;;;;;;;15.75;11.25;;;;;26.41;100.00;101437.03;5079926;27;51101;-47
2022/09/23 00:37:00;;;;;;;;;14.75;10.75;;;;;26.41;100.00;101442.47;5079072;27;51434;-46
2022/09/23 00:39:45;;;;;;;;;15.75;12.75;;;;;26.41;100.00;101439.75;5079990;27;51276;-48
2022/09/23 00:42:30;;;;;;;;;13.00;13.00;;;;;26.40;100.00;101438.00;5079253;27;51189;-45
2022/09/23 00:45:15;;;;;;;;;14.25;10.75;;;;;26.42;100.00;101437.88;5079429;27;51155;-47
2022/09/23 00:48:01;;;;;;;;;12.00;9.75;;;;;26.30;100.00;101412.22;5079969;27;51056;-47
2022/09/23 00:50:51;;;;;;;;;12.50;9.00;;;;;26.41;100.00;101441.59;5073938;27;51028;-50
2022/09/23 00:53:37;;;;;;;;;14.00;11.25;;;;;26.40;100.00;101431.66;5079444;27;51180;-47
2022/09/23 00:56:22;;;;;;;;;11.00;10.00;;;;;26.39;100.00;101417.13;5079411;28;51235;-47
2022/09/23 00:59:08;;;;;;;;;12.25;11.00;;;;;26.37;100.00;101408.16;5079904;28;51218;-46
2022/09/23 01:01:55;;;;;;;;;13.25;10.75;;;;;26.36;100.00;101406.38;5073116;28;51244;-48
2022/09/23 01:04:40;;;;;;;;;17.00;12.75;;;;;26.36;100.00;101402.78;5078604;28;51212;-49
2022/09/23 01:07:24;;;;;;;;;16.25;10.00;;;;;26.36;100.00;101398.22;5079454;28;51840;-46
2022/09/23 01:10:10;;;;;;;;;13.50;11.75;;;;;26.31;100.00;101383.97;5079647;28;51151;-46
2022/09/23 01:13:01;;;;;;;;;11.75;8.75;;;;;26.36;100.00;101394.63;5078904;28;51159;-48
2022/09/23 01:16:12;;;;;;;;;13.75;8.75;;;;;26.35;100.00;101392.84;5079211;28;51068;-46
2022/09/23 01:19:28;;;;;;;;;16.50;14.00;;;;;26.36;100.00;101397.34;5079420;28;51098;-47
2022/09/23 01:22:16;;;;;;;;;15.50;10.75;;;;;26.35;100.00;101395.59;5078621;28;51585;-47
2022/09/23 01:25:19;;;;;;;;;14.25;11.50;;;;;26.35;100.00;101391.00;5079518;28;51128;-45
2022/09/23 01:28:51;;;;;;;;;10.75;10.75;;;;;26.35;100.00;101393.72;5073938;28;51302;-49
2022/09/23 01:31:42;;;;;;;;;11.00;11.00;;;;;26.36;100.00;101392.75;5062152;27;51324;-47
2022/09/23 01:34:48;;;;;;;;;22.25;15.00;;;;;26.37;100.00;101388.19;5078364;28;51450;-47
2022/09/23 01:38:05;;;;;;;;;13.25;11.50;;;;;26.34;100.00;101383.81;5075703;27;51180;-46
2022/09/23 01:41:03;;;;;;;;;13.75;11.50;;;;;26.33;100.00;101376.59;5077211;27;51241;-47
2022/09/23 01:44:34;;;;;;;;;9.50;9.50;;;;;26.33;100.00;101378.41;5078307;28;51102;-47
2022/09/23 01:47:24;;;;;;;;;17.50;13.50;;;;;26.32;100.00;101380.28;5071292;27;51181;-47
2022/09/23 01:53:55;;;;;;;;;13.25;11.00;;;;;26.34;100.00;101385.63;5078011;27;51197;-47
2022/09/23 01:56:45;;;;;;;;;12.25;10.75;;;;;26.35;100.00;101384.66;5081488;27;51038;-47
2022/09/23 01:59:41;;;;;;;;;16.25;14.25;;;;;26.32;100.00;101377.56;5082168;27;51167;-47
2022/09/23 02:02:30;;;;;;;;;20.25;11.00;;;;;26.35;100.00;101380.06;5077171;27;51187;-47
2022/09/23 02:05:19;;;;;;;;;16.25;15.50;;;;;26.36;100.00;101386.44;5074236;27;51063;-45
2022/09/23 02:08:07;;;;;;;;;16.75;14.25;;;;;26.35;100.00;101382.81;5080826;27;51197;-47
2022/09/23 02:11:06;;;;;;;;;19.25;14.50;;;;;26.36;100.00;101381.84;5081169;27;51149;-49
2022/09/23 02:13:57;;;;;;;;;14.25;14.25;;;;;26.37;100.00;101385.47;5081830;27;51099;-46
2022/09/23 02:16:51;;;;;;;;;13.00;12.25;;;;;26.37;100.00;101394.50;5077372;27;51352;-46
2022/09/23 02:19:44;;;;;;;;;9.50;9.50;;;;;26.36;100.00;101394.63;5082804;27;51203;-45
2022/09/23 02:22:40;;;;;;;;;17.50;11.75;;;;;26.36;100.00;101394.63;5078855;27;51688;-47
2022/09/23 02:25:32;;;;;;;;;10.50;10.25;;;;;26.34;100.00;101391.09;5080820;27;51315;-46
2022/09/23 02:28:31;;;;;;;;;11.75;10.25;;;;;26.33;100.00;101383.88;5080834;27;51137;-46
2022/09/23 02:31:36;;;;;;;;;12.00;10.50;;;;;26.32;100.00;101390.31;5079875;27;51119;-47
2022/09/23 02:34:30;;;;;;;;;12.75;9.50;;;;;26.32;100.00;101384.84;5081653;27;51327;-47
2022/09/23 02:37:25;;;;;;;;;14.00;12.00;;;;;26.32;100.00;101393.03;5081583;27;51486;-48
2022/09/23 02:40:31;;;;;;;;;11.50;8.75;;;;;26.30;100.00;101391.28;5079756;27;51079;-48
2022/09/23 02:43:32;;;;;;;;;14.75;10.75;;;;;26.34;100.00;101399.28;5078842;27;51468;-50
2022/09/23 02:46:18;;;;;;;;;12.25;9.50;;;;;26.33;100.00;101395.69;5080115;27;51098;-49
2022/09/23 02:49:16;;;;;;;;;13.50;13.25;;;;;26.30;100.00;101407.63;5080982;27;51381;-47
2022/09/23 02:52:03;;;;;;;;;11.25;10.25;;;;;26.37;100.00;101412.75;5080132;27;51142;-48
2022/09/23 02:54:47;;;;;;;;;11.50;9.00;;;;;26.37;100.00;101418.19;5076901;27;51398;-47
2022/09/23 02:57:32;;;;;;;;;16.25;13.25;;;;;26.39;100.00;101425.31;5078342;27;51232;-46
2022/09/23 03:00:17;;;;;;;;;23.50;13.00;;;;;26.39;100.00;101425.31;5078746;27;51092;-46
2022/09/23 03:03:29;;;;;;;;;12.00;10.50;;;;;26.42;100.00;101425.13;5080510;27;51162;-45
2022/09/23 03:06:46;;;;;;;;;13.50;10.75;;;;;26.42;100.00;101430.59;5076553;27;51454;-45
2022/09/23 03:09:36;;;;;;;;;12.00;11.00;;;;;26.40;100.00;101432.53;5073147;27;51136;-47
2022/09/23 03:12:35;;;;;;;;;12.50;10.00;;;;;26.39;100.00;101425.31;5079993;27;51125;-47
2022/09/23 03:15:39;;;;;;;;;19.50;12.50;;;;;26.37;100.00;101419.06;5080461;27;51460;-49
2022/09/23 03:19:05;;;;;;;;;14.25;10.50;;;;;26.35;100.00;101412.81;5078177;27;51134;-50
2022/09/23 03:21:59;;;;;;;;;13.25;10.50;;;;;26.34;100.00;101402.00;5077170;27;51413;-47
2022/09/23 03:24:46;;;;;;;;;11.25;10.00;;;;;26.30;100.00;101398.59;5078889;27;51241;-47
2022/09/23 03:27:33;;;;;;;;;14.75;12.50;;;;;26.27;100.00;101390.56;5081054;27;51165;-48
2022/09/23 03:30:20;;;;;;;;;17.00;12.50;;;;;26.26;100.00;101386.09;5079635;27;51468;-47
2022/09/23 03:33:07;;;;;;;;;14.50;8.75;;;;;26.23;100.00;101389.03;5075438;27;51082;-48
2022/09/23 03:39:05;;;;;;;;;16.00;12.25;;;;;26.22;100.00;101404.50;5080458;27;51310;-46
2022/09/23 03:41:52;;;;;;;;;16.00;12.50;;;;;26.22;100.00;101411.81;5079530;27;51537;-46
2022/09/23 03:44:38;;;;;;;;;10.00;9.25;;;;;26.22;100.00;101417.28;5079530;27;51245;-46
2022/09/23 03:47:25;;;;;;;;;17.00;12.00;;;;;26.19;100.00;101420.16;5079304;27;51093;-49
2022/09/23 03:50:12;;;;;;;;;17.50;14.75;;;;;26.22;100.00;101423.59;5080556;27;51200;-49
2022/09/23 03:52:57;;;;;;;;;16.75;11.25;;;;;26.08;100.00;101405.28;5080556;27;51501;-45
2022/09/23 03:55:42;;;;;;;;;19.25;13.50;;;;;26.17;100.00;101419.38;5076962;27;51450;-48
2022/09/23 03:58:26;;;;;;;;;18.50;12.50;;;;;26.17;100.00;101419.38;5078323;27;51589;-46
2022/09/23 04:01:13;;;;;;;;;13.00;10.50;;;;;26.18;100.00;101415.69;5078098;27;51154;-47
2022/09/23 04:03:58;;;;;;;;;15.25;10.00;;;;;26.21;100.00;101427.28;5080409;27;51069;-47
2022/09/23 04:06:43;;;;;;;;;19.25;12.75;;;;;26.19;100.00;101429.22;5078493;27;51484;-47
2022/09/23 04:09:28;;;;;;;;;12.25;11.75;;;;;26.17;100.00;101422.09;5079230;27;51875;-49
2022/09/23 04:12:14;;;;;;;;;14.50;11.25;;;;;26.18;100.00;101426.59;5076750;27;51173;-46
2022/09/23 04:14:59;;;;;;;;;12.75;11.25;;;;;26.20;100.00;101432.84;5075753;27;51067;-46
2022/09/23 04:17:43;;;;;;;;;15.50;11.00;;;;;26.20;100.00;101424.66;5080059;27;51113;-46
2022/09/23 04:20:28;;;;;;;;;14.25;11.75;;;;;26.19;100.00;101420.16;5076810;27;51625;-49
2022/09/23 04:23:13;;;;;;;;;14.75;13.00;;;;;26.18;100.00;101411.13;5075890;27;51959;-46
2022/09/23 04:25:57;;;;;;;;;14.00;11.75;;;;;26.17;100.00;101411.19;5078303;27;51218;-46
2022/09/23 04:28:42;;;;;;;;;24.50;16.25;;;;;26.18;100.00;101410.22;5078785;27;51143;-46
2022/09/23 04:31:27;;;;;;;;;17.75;15.25;;;;;26.19;100.00;101417.44;5078941;27;51477;-47
2022/09/23 04:34:12;;;;;;;;;15.75;13.50;;;;;26.14;100.00;101406.81;5073806;27;51063;-48
2022/09/23 04:36:56;;;;;;;;;18.00;13.75;;;;;26.13;100.00;101416.84;5078208;27;51431;-47
2022/09/23 04:39:42;;;;;;;;;20.50;15.00;;;;;26.20;100.00;101430.09;5078911;27;50994;-49
2022/09/23 04:42:28;;;;;;;;;15.00;14.25;;;;;26.13;100.00;101433.22;5077165;27;51168;-47
2022/09/23 04:45:13;;;;;;;;;12.00;11.00;;;;;26.16;100.00;101436.69;5072115;27;51437;-47
2022/09/23 04:47:58;;;;;;;;;16.50;13.00;;;;;26.19;100.00;101444.72;5075686;27;51137;-47
2022/09/23 04:50:42;;;;;;;;;14.50;11.50;;;;;26.20;100.00;101450.06;5075623;27;51105;-47
2022/09/23 04:53:27;;;;;;;;;15.75;12.00;;;;;26.17;100.00;101443.91;5079752;27;51184;-47
2022/09/23 04:56:32;;;;;;;;;18.50;11.00;;;;;26.21;100.00;101453.69;5077187;27;51327;-47
2022/09/23 04:59:17;;;;;;;;;15.75;11.25;;;;;26.19;100.00;101458.34;5077893;27;51101;-46
2022/09/23 05:02:01;;;;;;;;;16.00;10.25;;;;;26.18;100.00;101460.22;5075449;27;51291;-47
2022/09/23 05:04:45;;;;;;;;;15.25;13.25;;;;;26.19;100.00;101458.34;5077559;27;51542;-46
2022/09/23 05:07:30;;;;;;;;;16.50;13.00;;;;;26.20;100.00;101465.56;5079189;28;51242;-46
2022/09/23 05:10:15;;;;;;;;;16.75;12.25;;;;;26.19;100.00;101470.13;5078307;27;51482;-50
2022/09/23 05:12:59;;;;;;;;;18.75;14.00;;;;;26.20;100.00;101468.28;5079412;28;51211;-48
2022/09/23 05:15:44;;;;;;;;;19.25;16.00;;;;;26.18;100.00;101462.94;5078333;27;51101;-46
2022/09/23 05:18:33;;;;;;;;;17.25;13.75;;;;;26.19;100.00;101467.41;5077220;27;51314;-46
2022/09/23 05:21:19;;;;;;;;;17.00;14.00;;;;;26.13;100.00;101459.59;5078574;27;51481;-49
2022/09/23 05:24:04;;;;;;;;;13.00;12.00;;;;;26.21;100.00;101478.25;5081260;27;51172;-49
2022/09/23 05:26:49;;;;;;;;;16.25;14.75;;;;;26.14;100.00;101455.91;5080537;27;51100;-47
2022/09/23 05:29:34;;;;;;;;;16.25;14.00;;;;;26.27;100.00;101472.41;5079888;27;51194;-45
2022/09/23 05:32:20;;;;;;;;;21.00;12.25;;;;;26.23;100.00;101460.81;5082770;27;51082;-50
2022/09/23 05:35:05;;;;;;;;;17.25;13.50;;;;;26.30;100.00;101467.66;5080092;27;51187;-47
2022/09/23 05:37:49;;;;;;;;;20.00;14.00;;;;;26.32;100.00;101464.84;5079129;27;51130;-48
2022/09/23 05:40:34;;;;;;;;;18.00;13.00;;;;;26.33;100.00;101469.34;5073840;27;51180;-47
2022/09/23 05:43:18;;;;;;;;;19.75;18.00;;;;;26.36;100.00;101480.06;5076635;27;52101;-48
2022/09/23 05:46:11;;;;;;;;;13.75;13.25;;;;;26.39;100.00;101489.94;5076452;27;51224;-46
2022/09/23 05:48:57;;;;;;;;;18.50;17.25;;;;;26.40;100.00;101483.50;5075035;27;51530;-45
2022/09/23 05:51:41;;;;;;;;;19.25;17.00;;;;;26.45;100.00;101487.72;5075746;27;51069;-45
2022/09/23 05:54:26;;;;;;;;;17.00;15.25;;;;;26.50;100.00;101492.91;5074856;27;51265;-46
2022/09/23 05:57:10;;;;;;;;;19.25;17.75;;;;;26.56;100.00;101498.00;5077468;27;51344;-46
2022/09/23 05:59:55;;;;;;;;;20.75;19.25;;;;;26.64;100.00;101500.28;5072108;27;51626;-46
2022/09/23 06:02:39;;;;;;;;;20.25;17.50;;;;;26.72;100.00;101492.50;5077738;27;51495;-45
2022/09/23 06:05:24;;;;;;;;;19.00;16.00;;;;;26.80;100.00;101485.72;5077839;27;51819;-46
2022/09/23 06:08:09;;;;;;;;;27.25;17.75;;;;;26.91;100.00;101475.03;5081437;27;51053;-45
2022/09/23 06:10:53;;;;;;;;;15.50;15.50;;;;;27.25;100.00;101486.59;5074539;27;51551;-46
2022/09/23 06:13:39;;;;;;;;;16.75;15.00;;;;;27.44;100.00;101474.53;5077653;27;51092;-47
2022/09/23 06:16:23;;;;;;;;;20.25;16.25;;;;;27.82;100.00;101479.41;5075013;27;51571;-47
2022/09/23 06:19:09;;;;;;;;;18.50;17.75;;;;;28.09;100.00;101486.81;5076460;27;51081;-49
2022/09/23 06:21:53;;;;;;;;;19.75;15.50;;;;;28.13;100.00;101482.91;5078766;27;51628;-47
2022/09/23 06:24:38;;;;;;;;;16.25;11.00;;;;;28.30;100.00;101499.06;5077042;27;51431;-48
2022/09/23 06:27:22;;;;;;;;;19.75;16.00;;;;;28.50;100.00;101493.22;5073903;27;51313;-46
2022/09/23 06:30:07;;;;;;;;;16.75;15.00;;;;;28.62;100.00;101500.63;5074594;27;51218;-47
2022/09/23 06:32:54;;;;;;;;;20.75;18.25;;;;;28.98;100.00;101501.81;5075710;27;51397;-47
2022/09/23 06:35:39;;;;;;;;;24.00;15.75;;;;;29.02;100.00;101505.22;5076016;27;51091;-46
2022/09/23 06:38:24;;;;;;;;;23.50;19.50;;;;;28.91;100.00;101504.09;5074672;27;51510;-47
2022/09/23 06:41:09;;;;;;;;;20.50;16.75;;;;;28.81;100.00;101505.72;5076008;27;51453;-48
2022/09/23 06:43:54;;;;;;;;;22.00;16.50;;;;;28.78;100.00;101522.38;5075111;27;51104;-50
2022/09/23 06:46:38;;;;;;;;;23.50;19.25;;;;;28.70;100.00;101525.59;5076004;27;51098;-49
2022/09/23 06:49:22;;;;;;;;;22.50;18.50;;;;;28.63;100.00;101526.97;5074343;27;51494;-47
2022/09/23 06:52:07;;;;;;;;;25.75;23.00;;;;;28.62;100.00;101519.78;5071001;27;51151;-48
2022/09/23 06:54:51;;;;;;;;;32.75;23.25;;;;;28.73;100.00;101527.28;5074320;27;51550;-47
2022/09/23 06:57:35;;;;;;;;;35.75;28.50;;;;;28.77;100.00;101531.56;5070738;27;51364;-46
2022/09/23 07:00:20;;;;;;;;;47.00;37.25;;;;;28.78;100.00;101538.81;5078590;27;51401;-47
2022/09/23 07:03:07;;;;;;;;;56.50;46.25;;;;;28.87;100.00;101535.44;5081425;27;51158;-45
2022/09/23 07:05:55;;;;;;;;;44.75;33.00;;;;;29.05;100.00;101533.25;5080949;27;51593;-45
2022/09/23 07:08:43;;;;;;;;;54.75;41.00;;;;;29.20;100.00;101534.09;5076999;27;51514;-48
2022/09/23 07:11:27;;;;;;;;;50.00;40.50;;;;;29.18;100.00;101551.59;5081423;27;50969;-49
2022/09/23 07:14:12;;;;;;;;;47.50;35.25;;;;;29.16;100.00;101568.16;5080012;27;51353;-49
2022/09/23 07:16:58;;;;;;;;;56.50;44.00;;;;;29.17;100.00;101569.00;5077284;27;51181;-49
2022/09/23 07:19:43;;;;;;;;;49.00;38.50;;;;;29.21;100.00;101576.06;5076374;27;51097;-45
2022/09/23 07:22:27;;;;;;;;;44.50;35.50;;;;;29.49;100.00;101577.78;5079712;27;51011;-48
2022/09/23 07:25:12;;;;;;;;;42.50;35.50;;;;;29.92;100.00;101582.03;5080188;27;51450;-50
2022/09/23 07:27:56;;;;;;;;;34.00;31.00;;;;;30.14;100.00;101561.28;5080940;27;51168;-45
2022/09/23 07:30:42;;;;;;;;;51.25;37.25;;;;;30.71;100.00;101576.25;5079150;27;51472;-51
2022/09/23 07:33:30;;;;;;;;;38.75;32.25;;;;;31.28;100.00;101568.28;5081068;27;51061;-49
2022/09/23 07:36:17;;;;;;;;;39.50;32.50;;;;;32.26;100.00;101557.75;5080729;27;51322;-49
2022/09/23 07:39:02;;;;;;;;;37.25;30.75;;;;;32.58;100.00;101552.28;5080735;27;51041;-49
2022/09/23 07:41:46;;;;;;;;;32.00;28.25;;;;;32.53;100.00;101559.19;5077236;27;51449;-48
2022/09/23 07:44:32;;;;;;;;;29.25;24.75;;;;;32.72;100.00;101555.72;5079595;27;51227;-46
2022/09/23 07:47:16;;;;;;;;;37.50;30.00;;;;;34.57;100.00;101555.03;5080575;27;51175;-48
2022/09/23 07:50:01;;;;;;;;;27.00;21.00;;;;;35.76;100.00;101523.47;5080389;27;51543;-45
2022/09/23 07:52:45;;;;;;;;;30.75;22.50;;;;;36.39;100.00;101498.81;5079722;27;51128;-50
2022/09/23 07:55:30;;;;;;;;;21.75;19.75;;;;;37.56;100.00;101496.81;5080915;27;51191;-47
2022/09/23 07:58:14;;;;;;;;;22.50;20.75;;;;;38.83;100.00;101479.31;5079104;27;51324;-48
2022/09/23 08:01:04;;;;;;;;;25.75;19.25;;;;;40.12;100.00;101476.50;5079420;27;51172;-44
2022/09/23 08:03:48;;;;;;;;;18.50;17.00;;;;;40.62;100.00;101470.63;5078377;27;51165;-45
2022/09/23 08:06:33;;;;;;;;;20.75;18.25;;;;;40.14;100.00;101479.97;5080541;27;51162;-47
2022/09/23 08:09:20;;;;;;;;;23.25;20.00;;;;;40.16;100.00;101480.69;5080028;27;51447;-46
2022/09/23 08:12:05;;;;;;;;;20.75;20.00;;;;;39.64;100.00;101493.25;5079514;27;51133;-49
2022/09/23 08:14:49;;;;;;;;;18.00;16.75;;;;;39.38;100.00;101499.97;5079758;27;51340;-45
2022/09/23 08:17:34;;;;;;;;;16.75;14.00;;;;;38.26;100.00;101494.84;5079710;27;51079;-48
2022/09/23 08:23:22;;;;;;;;;14.00;10.00;;;;;35.79;100.00;101527.81;5078826;27;51242;-47
2022/09/23 08:26:06;;;;;;;;;12.50;12.00;;;;;34.66;100.00;101549.69;5080052;27;51068;-50
2022/09/23 08:28:52;;;;;;;;;14.00;10.25;;;;;33.65;100.00;101567.06;5080714;27;51140;-47
2022/09/23 08:31:37;;;;;;;;;13.50;11.25;;;;;32.87;100.00;101573.75;5077373;27;51584;-48
2022/09/23 08:34:26;;;;;;;;;14.00;12.00;;;;;32.30;100.00;101568.38;5079446;27;51086;-46
2022/09/23 08:37:11;;;;;;;;;11.75;10.25;;;;;32.09;100.00;101586.63;5076182;27;51043;-49
2022/09/23 08:39:56;;;;;;;;;11.75;11.25;;;;;32.09;100.00;101582.00;5075599;27;51847;-51
2022/09/23 08:42:42;;;;;;;;;11.25;10.75;;;;;32.32;100.00;101582.03;5076583;27;51168;-47
2022/09/23 08:45:30;;;;;;;;;16.50;12.00;;;;;32.95;100.00;101581.38;5068503;27;51402;-45
